Time;durP1;ratioP1;P1;durP2;ratioP2;P2;SDS_P1;SDS_P2;PMS_P1;PMS_P2;Temp;Humidity;BMP_temperature;BMP_pressure;BME280_temperature;BME280_humidity;BME280_pressure;Samples;Min_cycle;Max_cycle;Signal;HPM_P1;HPM_P2
2024/03/25 00:01:13;;;;;;;4.83;2.50;;;10.50;98.10;;;;;;5045777;28;20427;-80
2024/03/25 00:03:39;;;;;;;5.23;2.00;;;10.50;98.10;;;;;;5006042;28;20435;-81
2024/03/25 00:06:06;;;;;;;6.30;2.10;;;10.50;98.10;;;;;;5048244;28;20445;-82
2024/03/25 00:08:32;;;;;;;9.77;2.70;;;10.50;98.10;;;;;;5042561;28;20193;-81
2024/03/25 00:11:00;;;;;;;5.50;2.90;;;10.50;98.10;;;;;;5025727;28;21265;-82
2024/03/25 00:13:26;;;;;;;5.70;3.10;;;10.50;98.10;;;;;;5030280;28;20494;-82
2024/03/25 00:15:57;;;;;;;6.50;2.40;;;10.50;98.20;;;;;;5030285;28;20435;-81
2024/03/25 00:18:25;;;;;;;11.13;3.10;;;10.50;98.20;;;;;;5048330;28;20525;-83
2024/03/25 00:20:53;;;;;;;8.90;2.83;;;10.50;98.20;;;;;;5033935;28;20573;-82
2024/03/25 00:23:21;;;;;;;7.10;3.33;;;10.50;98.30;;;;;;5047662;28;20996;-82
2024/03/25 00:25:50;;;;;;;6.10;2.87;;;10.50;98.30;;;;;;5026789;28;20431;-82
2024/03/25 00:28:16;;;;;;;13.13;3.17;;;10.50;98.30;;;;;;5045026;28;20438;-80
2024/03/25 00:30:44;;;;;;;4.33;2.23;;;10.40;98.30;;;;;;5034029;28;20533;-81
2024/03/25 00:33:12;;;;;;;8.80;3.10;;;10.50;98.30;;;;;;5029232;28;20994;-83
2024/03/25 00:35:43;;;;;;;9.07;3.30;;;10.50;98.40;;;;;;5042587;28;20415;-82
2024/03/25 00:38:09;;;;;;;9.60;3.03;;;10.50;98.40;;;;;;5047758;28;20522;-80
2024/03/25 00:40:37;;;;;;;12.60;2.60;;;10.40;98.30;;;;;;5020704;28;20999;-82
2024/03/25 00:43:03;;;;;;;6.67;3.00;;;10.40;98.30;;;;;;5020804;28;20454;-82
2024/03/25 00:45:30;;;;;;;9.70;3.33;;;10.50;98.40;;;;;;5034567;28;20426;-81
2024/03/25 00:48:03;;;;;;;5.90;2.20;;;10.50;98.40;;;;;;5047865;28;20537;-83
2024/03/25 00:50:29;;;;;;;5.70;2.83;;;10.50;98.40;;;;;;5030044;28;20455;-80
2024/03/25 00:52:57;;;;;;;6.00;2.43;;;10.40;98.40;;;;;;5029820;28;20509;-82
2024/03/25 00:55:28;;;;;;;6.90;3.00;;;10.40;98.40;;;;;;5030119;28;20493;-82
2024/03/25 00:57:56;;;;;;;7.67;3.20;;;10.40;98.40;;;;;;5047498;28;20427;-83
2024/03/25 01:00:22;;;;;;;8.60;2.90;;;10.50;98.40;;;;;;5047914;28;20437;-82
2024/03/25 01:02:51;;;;;;;11.67;2.90;;;10.40;98.40;;;;;;5047437;28;21085;-81
2024/03/25 01:05:20;;;;;;;9.43;2.67;;;10.40;98.40;;;;;;5044973;28;20205;-83
2024/03/25 01:07:48;;;;;;;12.70;2.80;;;10.40;98.40;;;;;;5030665;28;20423;-82
2024/03/25 01:10:16;;;;;;;6.80;2.50;;;10.40;98.40;;;;;;5024994;28;20956;-82
2024/03/25 01:12:42;;;;;;;9.17;3.00;;;10.40;98.40;;;;;;5047053;28;20553;-82
2024/03/25 01:15:13;;;;;;;7.53;2.43;;;10.40;98.40;;;;;;5044478;28;20451;-80
2024/03/25 01:17:39;;;;;;;6.90;2.53;;;10.40;98.40;;;;;;5029946;28;20930;-81
2024/03/25 01:20:05;;;;;;;4.87;2.27;;;10.40;98.50;;;;;;5029965;28;20501;-82
2024/03/25 01:22:31;;;;;;;7.87;3.17;;;10.40;98.40;;;;;;5032664;28;20236;-81
2024/03/25 01:24:58;;;;;;;6.17;2.37;;;10.40;98.40;;;;;;5030074;28;20911;-82
2024/03/25 01:27:28;;;;;;;7.40;2.70;;;10.40;98.40;;;;;;5044733;28;20427;-82
2024/03/25 01:29:54;;;;;;;7.30;2.77;;;10.40;98.40;;;;;;5012318;28;20447;-81
2024/03/25 01:32:48;;;;;;;3.77;2.40;;;10.40;98.50;;;;;;5029418;28;20474;-82
2024/03/25 01:35:16;;;;;;;8.00;2.27;;;10.40;98.50;;;;;;5024861;28;20440;-83
2024/03/25 01:37:42;;;;;;;10.90;2.50;;;10.40;98.50;;;;;;5049782;28;20998;-82
2024/03/25 01:40:12;;;;;;;5.90;2.20;;;10.40;98.50;;;;;;5050771;28;20932;-82
2024/03/25 01:43:23;;;;;;;6.30;2.87;;;10.40;98.50;;;;;;5050503;28;20430;-83
2024/03/25 01:45:53;;;;;;;11.33;3.23;;;10.30;98.40;;;;;;5050887;28;20433;-82
2024/03/25 01:48:22;;;;;;;7.93;2.17;;;10.30;98.50;;;;;;5050858;28;21043;-82
2024/03/25 01:50:48;;;;;;;8.30;2.70;;;10.30;98.40;;;;;;5050938;28;20434;-81
2024/03/25 01:53:17;;;;;;;5.90;2.17;;;10.30;98.40;;;;;;5042396;28;20974;-82
2024/03/25 01:55:44;;;;;;;9.00;2.50;;;10.30;98.40;;;;;;5046930;28;20436;-81
2024/03/25 01:58:20;;;;;;;4.30;2.30;;;10.30;98.40;;;;;;5033607;28;20526;-82
2024/03/25 02:01:37;;;;;;;6.93;2.80;;;10.30;98.50;;;;;;5032688;28;20517;-81
2024/03/25 02:04:03;;;;;;;8.80;3.00;;;10.30;98.40;;;;;;5038591;28;20800;-80
2024/03/25 02:06:36;;;;;;;6.23;2.63;;;10.30;98.50;;;;;;5038331;28;20447;-80
2024/03/25 02:09:55;;;;;;;10.03;2.33;;;10.30;98.50;;;;;;5052627;28;20963;-80
2024/03/25 02:12:46;;;;;;;6.43;2.70;;;10.30;98.50;;;;;;5017023;28;20498;-80
2024/03/25 02:15:13;;;;;;;9.87;2.90;;;10.30;98.50;;;;;;5050174;28;20890;-81
2024/03/25 02:17:39;;;;;;;6.90;2.37;;;10.30;98.50;;;;;;5033016;28;20441;-81
2024/03/25 02:20:07;;;;;;;7.67;3.73;;;10.20;98.50;;;;;;5030811;28;20435;-80
2024/03/25 02:22:36;;;;;;;7.00;2.60;;;10.30;98.50;;;;;;5043831;28;20422;-81
2024/03/25 02:25:08;;;;;;;7.20;3.43;;;10.20;98.40;;;;;;5051187;28;20438;-81
2024/03/25 02:27:38;;;;;;;5.27;2.80;;;10.20;98.40;;;;;;5028167;28;20450;-78
2024/03/25 02:30:12;;;;;;;7.50;2.30;;;10.20;98.40;;;;;;5054035;28;20445;-82
2024/03/25 02:32:43;;;;;;;7.60;2.93;;;10.20;98.40;;;;;;5032567;28;20478;-78
2024/03/25 02:35:16;;;;;;;9.70;2.33;;;10.20;98.40;;;;;;5039561;28;20525;-78
2024/03/25 02:37:42;;;;;;;10.80;2.67;;;10.20;98.40;;;;;;5052992;28;20427;-80
2024/03/25 02:40:09;;;;;;;5.20;2.70;;;10.20;98.40;;;;;;5014079;28;20971;-81
2024/03/25 02:42:36;;;;;;;10.63;3.30;;;10.20;98.40;;;;;;5030181;28;20458;-81
2024/03/25 02:45:05;;;;;;;4.07;2.20;;;10.20;98.40;;;;;;5018938;28;20441;-81
2024/03/25 02:47:31;;;;;;;9.53;2.73;;;10.20;98.40;;;;;;5040761;28;20449;-81
2024/03/25 02:49:57;;;;;;;8.97;3.10;;;10.20;98.40;;;;;;5016454;28;20481;-82
2024/03/25 02:52:25;;;;;;;8.90;2.63;;;10.20;98.40;;;;;;5038409;28;20502;-81
2024/03/25 02:54:56;;;;;;;8.93;2.63;;;10.20;98.30;;;;;;5016912;28;20823;-81
2024/03/25 02:57:24;;;;;;;7.67;2.77;;;10.20;98.30;;;;;;5030392;28;20458;-80
2024/03/25 02:59:54;;;;;;;5.50;2.53;;;10.20;98.70;;;;;;5030186;28;20783;-81
2024/03/25 03:02:25;;;;;;;6.20;2.97;;;10.20;98.30;;;;;;5030241;28;20439;-80
2024/03/25 03:04:58;;;;;;;8.30;3.40;;;10.20;98.40;;;;;;5049492;28;20531;-81
2024/03/25 03:07:26;;;;;;;8.70;3.20;;;10.20;98.30;;;;;;5015766;28;20515;-81
2024/03/25 03:09:52;;;;;;;6.73;2.70;;;10.10;98.30;;;;;;5024936;28;21163;-81
2024/03/25 03:12:25;;;;;;;7.80;3.27;;;10.10;98.30;;;;;;5049525;28;21233;-82
2024/03/25 03:14:53;;;;;;;9.10;3.67;;;10.10;98.30;;;;;;5032106;28;20447;-81
2024/03/25 03:17:19;;;;;;;7.83;2.90;;;10.10;98.30;;;;;;5046372;28;20490;-81
2024/03/25 03:19:47;;;;;;;5.33;3.07;;;10.10;98.30;;;;;;5037771;28;20508;-81
2024/03/25 03:22:16;;;;;;;4.63;2.73;;;10.10;98.30;;;;;;5015639;28;20519;-81
2024/03/25 03:24:44;;;;;;;7.30;2.80;;;10.10;98.30;;;;;;5027704;28;20420;-81
2024/03/25 03:27:13;;;;;;;8.80;2.90;;;10.10;98.30;;;;;;5029806;28;20432;-80
2024/03/25 03:29:41;;;;;;;5.03;2.90;;;10.10;98.30;;;;;;5048086;28;20466;-80
2024/03/25 03:32:08;;;;;;;6.70;2.57;;;10.10;98.30;;;;;;5018839;28;20524;-81
2024/03/25 03:34:38;;;;;;;8.40;3.30;;;10.10;98.30;;;;;;5043404;28;20449;-80
2024/03/25 03:37:04;;;;;;;6.20;3.13;;;10.10;98.30;;;;;;5031594;28;20458;-80
2024/03/25 03:39:30;;;;;;;7.17;3.40;;;10.10;98.30;;;;;;5030893;28;20457;-80
2024/03/25 03:41:56;;;;;;;4.07;2.30;;;10.00;98.30;;;;;;5013753;28;20292;-80
2024/03/25 03:44:26;;;;;;;5.93;3.30;;;10.10;98.30;;;;;;5048740;28;20331;-80
2024/03/25 03:46:52;;;;;;;8.83;2.87;;;10.00;98.30;;;;;;5048745;28;20442;-80
2024/03/25 03:49:21;;;;;;;4.10;2.73;;;10.00;98.30;;;;;;5048655;28;20512;-80
2024/03/25 03:51:46;;;;;;;9.17;3.30;;;10.00;98.30;;;;;;5031146;28;20458;-81
2024/03/25 03:54:13;;;;;;;7.73;3.03;;;10.00;98.30;;;;;;5030853;28;20434;-80
2024/03/25 03:56:39;;;;;;;8.80;3.90;;;10.00;98.30;;;;;;5032406;28;20232;-82
2024/03/25 03:59:05;;;;;;;8.30;3.60;;;10.00;98.30;;;;;;5048027;28;20450;-80
2024/03/25 04:01:30;;;;;;;9.23;2.80;;;10.00;98.30;;;;;;5034855;28;20246;-81
2024/03/25 04:03:56;;;;;;;7.17;3.17;;;10.00;98.30;;;;;;5026630;28;20193;-81
2024/03/25 04:06:22;;;;;;;7.90;2.97;;;10.00;98.30;;;;;;5048033;28;20569;-82
2024/03/25 04:08:48;;;;;;;5.93;2.87;;;10.00;98.30;;;;;;5048079;28;20212;-80
2024/03/25 04:11:14;;;;;;;7.27;3.50;;;10.00;98.30;;;;;;4998316;28;20448;-82
2024/03/25 04:13:40;;;;;;;7.10;2.80;;;10.00;98.30;;;;;;5014080;28;20478;-80
2024/03/25 04:16:09;;;;;;;5.80;3.10;;;10.00;98.30;;;;;;5047836;28;20439;-81
2024/03/25 04:18:35;;;;;;;3.50;2.33;;;10.00;98.40;;;;;;5048309;28;20649;-79
2024/03/25 04:21:01;;;;;;;11.43;3.20;;;10.00;98.30;;;;;;5030881;28;20490;-81
2024/03/25 04:23:29;;;;;;;7.13;2.90;;;9.90;98.90;;;;;;5027325;28;20185;-81
2024/03/25 04:25:55;;;;;;;5.37;3.30;;;10.00;98.40;;;;;;5028670;28;20473;-81
2024/03/25 04:28:51;;;;;;;9.13;3.27;;;10.00;98.40;;;;;;5021745;28;20443;-80
2024/03/25 04:31:17;;;;;;;6.00;2.97;;;10.00;98.40;;;;;;5028030;28;20451;-80
2024/03/25 04:33:46;;;;;;;7.83;2.73;;;10.00;98.40;;;;;;5030242;28;20473;-79
2024/03/25 04:36:14;;;;;;;8.30;2.87;;;9.90;98.90;;;;;;5030382;28;20879;-81
2024/03/25 04:38:42;;;;;;;7.87;3.73;;;9.90;98.90;;;;;;5047862;28;20502;-81
2024/03/25 04:41:08;;;;;;;5.10;2.50;;;9.90;98.90;;;;;;5040549;28;20529;-81
2024/03/25 04:43:34;;;;;;;7.70;2.90;;;9.90;98.90;;;;;;5020005;28;20219;-81
2024/03/25 04:46:03;;;;;;;6.03;2.73;;;9.90;98.90;;;;;;5005599;28;20439;-79
2024/03/25 04:48:29;;;;;;;6.53;3.03;;;9.90;98.90;;;;;;5026926;28;20816;-81
2024/03/25 04:51:00;;;;;;;7.90;3.47;;;9.90;98.90;;;;;;5045663;28;20427;-81
2024/03/25 04:53:29;;;;;;;7.13;3.00;;;9.90;98.90;;;;;;5030257;28;20574;-80
2024/03/25 04:55:55;;;;;;;4.20;2.43;;;9.90;98.90;;;;;;5013941;28;20454;-80
2024/03/25 04:58:21;;;;;;;10.03;3.53;;;9.90;98.90;;;;;;5028522;28;20432;-81
2024/03/25 05:00:49;;;;;;;9.40;3.07;;;9.90;98.90;;;;;;5019002;28;20428;-81
2024/03/25 05:03:15;;;;;;;12.60;3.10;;;9.90;98.90;;;;;;5029917;28;20469;-79
2024/03/25 05:05:40;;;;;;;10.60;2.90;;;9.90;98.90;;;;;;5047766;28;20426;-81
2024/03/25 05:08:06;;;;;;;12.57;3.10;;;9.90;99.00;;;;;;5032051;28;20204;-81
2024/03/25 05:10:37;;;;;;;6.07;2.77;;;9.90;99.00;;;;;;5048842;28;20441;-80
2024/03/25 05:13:03;;;;;;;4.13;2.77;;;9.90;99.00;;;;;;5034120;28;20474;-81
2024/03/25 05:15:29;;;;;;;5.27;2.97;;;9.90;99.00;;;;;;5017556;28;20446;-80
2024/03/25 05:17:57;;;;;;;9.37;3.53;;;9.90;99.00;;;;;;5051289;28;20418;-81
2024/03/25 05:20:26;;;;;;;6.47;2.80;;;9.90;99.00;;;;;;5034396;28;20435;-82
2024/03/25 05:22:52;;;;;;;5.00;2.63;;;9.90;99.00;;;;;;5052590;28;20491;-82
2024/03/25 05:25:24;;;;;;;7.13;2.80;;;9.90;99.00;;;;;;5051547;28;20419;-82
2024/03/25 05:27:50;;;;;;;7.77;2.60;;;9.90;99.00;;;;;;5041810;28;20458;-79
2024/03/25 05:30:18;;;;;;;9.57;3.00;;;9.90;99.00;;;;;;5031061;28;20438;-82
2024/03/25 05:32:46;;;;;;;5.63;2.90;;;9.90;99.00;;;;;;5035069;28;20496;-80
2024/03/25 05:35:12;;;;;;;5.10;3.20;;;9.80;98.90;;;;;;5016027;28;20451;-80
2024/03/25 05:37:40;;;;;;;11.07;3.50;;;9.90;99.00;;;;;;5016880;28;20415;-81
2024/03/25 05:40:11;;;;;;;5.87;3.03;;;9.90;99.00;;;;;;5014606;28;20435;-79
2024/03/25 05:42:37;;;;;;;7.13;3.00;;;9.80;99.00;;;;;;5050064;28;20536;-78
2024/03/25 05:45:04;;;;;;;3.83;2.10;;;9.80;99.00;;;;;;5032136;28;20445;-80
2024/03/25 05:47:34;;;;;;;8.30;3.13;;;9.80;99.00;;;;;;5050661;28;20443;-81
2024/03/25 05:50:02;;;;;;;11.17;3.23;;;9.80;99.00;;;;;;5031745;28;20448;-82
2024/03/25 05:52:31;;;;;;;7.70;3.33;;;9.80;99.00;;;;;;5032232;28;20554;-80
2024/03/25 05:54:57;;;;;;;7.87;2.90;;;9.80;99.30;;;;;;5014610;28;21259;-80
2024/03/25 05:57:23;;;;;;;9.10;2.70;;;9.80;99.00;;;;;;5035041;28;20437;-80
2024/03/25 05:59:49;;;;;;;6.43;2.40;;;9.80;99.00;;;;;;5031903;28;20505;-80
2024/03/25 06:02:17;;;;;;;10.30;3.53;;;9.80;99.00;;;;;;5049846;28;20487;-79
2024/03/25 06:04:43;;;;;;;10.40;3.00;;;9.80;99.00;;;;;;5056960;28;20272;-80
2024/03/25 06:07:09;;;;;;;7.33;3.10;;;9.80;99.10;;;;;;5011146;28;20505;-79
2024/03/25 06:09:38;;;;;;;8.53;2.63;;;9.80;99.10;;;;;;5031305;28;20907;-79
2024/03/25 06:12:07;;;;;;;7.23;3.40;;;9.80;99.00;;;;;;5032372;28;20481;-80
2024/03/25 06:14:35;;;;;;;9.23;3.60;;;9.80;99.10;;;;;;5028775;28;20813;-79
2024/03/25 06:17:01;;;;;;;7.60;2.90;;;9.80;99.00;;;;;;5017113;28;20461;-79
2024/03/25 06:19:30;;;;;;;7.33;2.80;;;9.80;99.10;;;;;;5052590;28;20287;-79
2024/03/25 06:22:00;;;;;;;6.40;2.83;;;9.80;99.10;;;;;;5039565;28;20442;-79
2024/03/25 06:24:26;;;;;;;4.93;2.53;;;9.80;99.10;;;;;;5043606;28;20517;-79
2024/03/25 06:26:52;;;;;;;5.80;3.20;;;9.80;99.10;;;;;;5033804;28;20455;-79
2024/03/25 06:29:20;;;;;;;8.77;3.13;;;9.80;99.10;;;;;;5001659;28;20517;-80
2024/03/25 06:34:32;;;;;;;7.67;3.00;;;9.80;99.10;;;;;;5039654;28;20854;-79
2024/03/25 06:36:58;;;;;;;4.60;2.80;;;9.80;99.10;;;;;;5035342;28;20485;-80
2024/03/25 06:39:26;;;;;;;7.23;3.17;;;9.80;99.10;;;;;;5052762;28;20454;-79
2024/03/25 06:41:52;;;;;;;7.50;2.90;;;9.80;99.10;;;;;;5035544;28;20442;-79
2024/03/25 06:44:18;;;;;;;5.73;2.83;;;9.80;99.10;;;;;;5052100;28;20431;-78
2024/03/25 06:46:44;;;;;;;8.00;2.80;;;9.70;99.10;;;;;;5028927;28;20443;-80
2024/03/25 06:49:12;;;;;;;5.60;3.07;;;9.80;99.10;;;;;;5016389;28;20861;-80
2024/03/25 06:51:40;;;;;;;9.00;3.40;;;9.80;99.10;;;;;;5028394;28;20890;-80
2024/03/25 06:54:12;;;;;;;7.70;2.90;;;9.70;99.10;;;;;;5030723;28;20466;-80
2024/03/25 06:56:38;;;;;;;9.73;3.20;;;9.80;99.10;;;;;;5044529;28;20426;-80
2024/03/25 06:59:03;;;;;;;8.37;2.90;;;9.80;99.10;;;;;;5031589;28;20786;-80
2024/03/25 07:01:29;;;;;;;6.53;3.17;;;9.80;99.10;;;;;;5049093;28;20428;-80
2024/03/25 07:03:56;;;;;;;4.60;2.50;;;9.80;99.10;;;;;;5031603;28;20481;-81
2024/03/25 07:06:22;;;;;;;6.83;3.17;;;9.80;99.10;;;;;;5034588;28;20441;-80
2024/03/25 07:08:49;;;;;;;4.50;2.47;;;9.70;99.10;;;;;;5030976;28;20189;-82
2024/03/25 07:11:14;;;;;;;5.73;2.80;;;9.80;99.10;;;;;;5030684;28;20433;-81
2024/03/25 07:13:40;;;;;;;3.23;2.53;;;9.80;99.10;;;;;;5026387;28;20471;-81
2024/03/25 07:16:09;;;;;;;7.87;3.27;;;9.80;99.10;;;;;;5023543;28;20506;-81
2024/03/25 07:18:38;;;;;;;10.80;3.20;;;9.80;99.10;;;;;;5052115;28;20451;-82
2024/03/25 07:21:28;;;;;;;6.27;3.00;;;9.80;99.10;;;;;;5021199;28;20516;-82
2024/03/25 07:24:06;;;;;;;6.93;3.03;;;9.80;99.10;;;;;;5028993;28;20245;-82
2024/03/25 07:26:37;;;;;;;7.03;3.40;;;9.80;99.10;;;;;;5048240;28;20450;-79
2024/03/25 07:29:02;;;;;;;4.27;3.20;;;9.80;99.10;;;;;;5048307;28;20435;-82
2024/03/25 07:31:31;;;;;;;9.40;3.10;;;9.70;99.10;;;;;;5031224;28;20454;-82
2024/03/25 07:33:59;;;;;;;8.00;3.13;;;9.80;99.10;;;;;;5050010;28;20581;-82
2024/03/25 07:36:29;;;;;;;6.10;3.23;;;9.80;99.20;;;;;;5035302;28;20490;-80
2024/03/25 07:38:57;;;;;;;4.17;3.00;;;9.80;99.20;;;;;;5049969;28;20434;-82
2024/03/25 07:41:25;;;;;;;8.50;3.57;;;9.70;99.10;;;;;;5064968;28;20423;-79
2024/03/25 07:43:51;;;;;;;7.30;2.90;;;9.80;99.20;;;;;;5064442;28;20462;-81
2024/03/25 07:46:17;;;;;;;7.07;3.20;;;9.80;99.20;;;;;;5030127;28;20434;-80
2024/03/25 07:49:11;;;;;;;5.13;2.80;;;9.80;99.20;;;;;;5065968;28;20211;-81
2024/03/25 07:51:39;;;;;;;7.67;2.87;;;9.80;99.20;;;;;;5058552;28;20449;-80
2024/03/25 07:54:05;;;;;;;6.17;3.10;;;9.80;99.20;;;;;;5035970;28;20532;-80
2024/03/25 07:56:32;;;;;;;7.73;3.37;;;9.70;99.10;;;;;;5005831;28;20439;-80
2024/03/25 07:59:52;;;;;;;10.73;4.03;;;9.80;99.20;;;;;;5049358;28;20446;-81
2024/03/25 08:02:19;;;;;;;7.60;2.93;;;9.80;99.20;;;;;;5026654;28;20439;-82
2024/03/25 08:04:45;;;;;;;5.37;3.20;;;9.80;99.20;;;;;;5032701;28;20439;-80
2024/03/25 08:07:11;;;;;;;5.80;2.87;;;9.80;99.20;;;;;;5029060;28;20455;-81
2024/03/25 08:09:36;;;;;;;6.93;3.30;;;9.80;99.20;;;;;;4996763;28;20467;-81
2024/03/25 08:12:02;;;;;;;4.40;2.80;;;9.80;99.20;;;;;;5046579;28;20962;-82
2024/03/25 08:14:31;;;;;;;8.10;3.23;;;9.80;99.60;;;;;;5028626;28;20469;-82
2024/03/25 08:16:57;;;;;;;4.57;3.00;;;9.80;99.20;;;;;;5058856;28;20522;-79
2024/03/25 08:19:27;;;;;;;6.17;3.10;;;9.80;99.20;;;;;;5042737;28;20439;-82
2024/03/25 08:21:57;;;;;;;7.87;3.37;;;9.80;99.20;;;;;;5046957;28;20439;-82
2024/03/25 08:24:23;;;;;;;9.90;2.97;;;9.80;99.60;;;;;;5045063;28;20458;-81
2024/03/25 08:26:54;;;;;;;7.10;3.10;;;9.80;99.30;;;;;;5029188;28;20931;-81
2024/03/25 08:29:51;;;;;;;12.50;4.53;;;9.80;99.30;;;;;;5026612;28;20443;-81
2024/03/25 08:32:17;;;;;;;6.40;3.37;;;9.80;99.30;;;;;;5047023;28;20474;-83
2024/03/25 08:34:42;;;;;;;8.93;3.70;;;9.80;99.30;;;;;;5040784;28;20435;-80
2024/03/25 08:37:08;;;;;;;7.13;3.40;;;9.80;99.40;;;;;;5046069;28;20902;-80
2024/03/25 08:39:34;;;;;;;7.03;3.33;;;9.80;99.40;;;;;;5046494;28;20455;-81
2024/03/25 08:42:02;;;;;;;7.03;3.27;;;9.80;99.70;;;;;;5024860;28;20572;-80
2024/03/25 08:44:33;;;;;;;6.10;3.73;;;9.80;99.40;;;;;;5012828;28;20435;-82
2024/03/25 08:47:06;;;;;;;7.20;3.40;;;9.80;99.40;;;;;;5029750;28;20470;-81
2024/03/25 08:49:57;;;;;;;10.73;3.90;;;9.80;99.30;;;;;;5029837;28;20431;-83
2024/03/25 08:52:23;;;;;;;8.30;3.70;;;9.80;99.20;;;;;;5034017;28;20479;-81
2024/03/25 08:54:52;;;;;;;9.03;3.00;;;9.80;99.30;;;;;;5030277;28;20477;-83
2024/03/25 08:57:18;;;;;;;13.23;3.90;;;9.80;99.40;;;;;;5044830;28;20510;-82
2024/03/25 08:59:46;;;;;;;7.40;3.40;;;9.80;99.30;;;;;;5047930;28;20491;-82
2024/03/25 09:02:12;;;;;;;7.90;3.93;;;9.80;99.20;;;;;;5011024;28;20212;-82
2024/03/25 09:04:42;;;;;;;4.77;3.10;;;9.80;99.30;;;;;;5015445;28;20834;-81
2024/03/25 09:07:13;;;;;;;10.40;3.80;;;9.90;99.40;;;;;;5037542;28;20503;-81
2024/03/25 09:12:23;;;;;;;8.20;3.50;;;9.90;99.40;;;;;;5028841;28;20463;-82
2024/03/25 09:14:52;;;;;;;9.17;3.27;;;9.90;99.40;;;;;;5005955;28;21198;-81
2024/03/25 09:17:23;;;;;;;8.90;3.53;;;9.90;99.40;;;;;;5047035;28;21150;-83
2024/03/25 09:19:48;;;;;;;6.13;2.80;;;10.00;98.90;;;;;;4997173;28;20469;-81
2024/03/25 09:22:14;;;;;;;5.47;3.07;;;10.00;98.80;;;;;;5030203;28;20748;-81
2024/03/25 09:24:45;;;;;;;7.13;2.70;;;10.00;98.80;;;;;;5013346;28;20442;-82
2024/03/25 09:27:15;;;;;;;6.07;2.70;;;10.00;98.80;;;;;;5010920;28;20452;-81
2024/03/25 09:29:42;;;;;;;10.43;3.83;;;10.10;98.70;;;;;;5114333;22;20495;-81
2024/03/25 09:32:08;;;;;;;9.90;3.33;;;10.10;98.50;;;;;;5062270;28;21029;-83
2024/03/25 09:34:34;;;;;;;9.10;3.03;;;10.10;98.40;;;;;;5080514;28;20486;-80
2024/03/25 09:37:01;;;;;;;8.00;3.20;;;10.10;98.10;;;;;;5090772;28;20448;-79
2024/03/25 09:39:31;;;;;;;10.23;2.70;;;10.10;97.90;;;;;;5054123;28;20429;-82
2024/03/25 09:42:01;;;;;;;8.03;3.57;;;10.20;97.70;;;;;;5054160;28;20946;-80
2024/03/25 09:44:33;;;;;;;6.40;3.00;;;10.20;97.20;;;;;;5083259;28;20434;-83
2024/03/25 09:47:03;;;;;;;11.10;3.50;;;10.20;97.20;;;;;;5068917;28;20459;-83
2024/03/25 09:49:34;;;;;;;9.10;3.20;;;10.20;97.50;;;;;;5086517;28;20485;-83
2024/03/25 09:52:07;;;;;;;8.57;2.70;;;10.20;97.40;;;;;;5105766;28;20964;-83
2024/03/25 09:54:33;;;;;;;11.40;3.70;;;10.20;97.50;;;;;;5050458;28;20584;-82
2024/03/25 09:57:01;;;;;;;5.13;2.77;;;10.30;97.50;;;;;;5068951;28;21044;-81
2024/03/25 09:59:30;;;;;;;11.77;5.40;;;10.30;97.60;;;;;;5091466;28;20420;-82
2024/03/25 10:01:58;;;;;;;6.50;2.60;;;10.30;97.40;;;;;;5108833;28;20476;-80
2024/03/25 10:04:24;;;;;;;10.17;3.87;;;10.30;97.20;;;;;;5104597;28;20921;-82
2024/03/25 10:06:50;;;;;;;4.33;2.60;;;10.30;97.00;;;;;;5089130;28;20421;-83
2024/03/25 10:09:22;;;;;;;7.40;3.57;;;10.30;96.90;;;;;;5071180;28;20459;-82
2024/03/25 10:11:49;;;;;;;5.20;2.60;;;10.40;96.90;;;;;;5091156;28;20440;-82
2024/03/25 10:14:21;;;;;;;8.13;2.83;;;10.40;97.00;;;;;;5086618;28;20429;-80
2024/03/25 10:17:41;;;;;;;10.20;3.00;;;10.40;97.20;;;;;;5075973;28;20431;-83
2024/03/25 10:20:09;;;;;;;7.13;2.83;;;10.40;97.10;;;;;;5107416;28;20424;-82
2024/03/25 10:22:46;;;;;;;8.17;2.90;;;10.40;97.40;;;;;;5068814;28;20879;-81
2024/03/25 10:25:29;;;;;;;4.53;2.60;;;10.40;97.40;;;;;;5094729;28;20447;-88
2024/03/25 10:27:57;;;;;;;9.70;2.80;;;10.50;97.50;;;;;;5080279;28;20447;-86
2024/03/25 10:30:23;;;;;;;4.87;3.10;;;10.50;97.50;;;;;;5091421;28;20417;-87
2024/03/25 10:33:03;;;;;;;6.30;2.77;;;10.50;97.50;;;;;;5068018;28;20461;-84
2024/03/25 10:35:34;;;;;;;4.10;2.40;;;10.50;97.50;;;;;;5059391;28;20447;-84
2024/03/25 10:38:05;;;;;;;4.40;2.80;;;10.60;97.50;;;;;;5089277;28;20551;-84
2024/03/25 10:40:35;;;;;;;4.77;2.60;;;10.60;97.50;;;;;;5062712;28;20448;-83
2024/03/25 10:43:03;;;;;;;8.27;2.60;;;10.60;97.90;;;;;;5056648;27;21449;-83
2024/03/25 10:45:33;;;;;;;6.33;3.30;;;10.60;97.50;;;;;;5106629;28;20862;-82
2024/03/25 10:48:13;;;;;;;8.37;3.27;;;10.60;97.50;;;;;;5075351;28;20428;-84
2024/03/25 10:51:06;;;;;;;5.13;2.60;;;10.70;97.50;;;;;;5076281;28;20433;-81
2024/03/25 10:53:36;;;;;;;5.40;2.80;;;10.70;97.40;;;;;;5089996;28;20484;-86
2024/03/25 10:56:05;;;;;;;6.43;3.00;;;10.70;97.30;;;;;;5074897;28;20534;-86
2024/03/25 10:58:32;;;;;;;9.80;2.90;;;10.80;97.40;;;;;;5083673;28;20425;-84
2024/03/25 11:01:02;;;;;;;5.57;2.30;;;10.80;97.30;;;;;;5097545;28;20444;-83
2024/03/25 11:03:28;;;;;;;4.50;2.93;;;10.80;97.40;;;;;;5083323;28;20449;-85
2024/03/25 11:05:57;;;;;;;7.77;3.17;;;10.80;97.40;;;;;;5106067;27;20490;-84
2024/03/25 11:08:33;;;;;;;4.30;2.53;;;10.80;97.30;;;;;;5054957;28;20515;-84
2024/03/25 11:11:00;;;;;;;5.43;3.07;;;10.90;97.30;;;;;;5063884;28;20448;-81
2024/03/25 11:13:27;;;;;;;7.10;2.93;;;10.90;97.30;;;;;;5073914;28;20498;-83
2024/03/25 11:16:33;;;;;;;5.60;2.60;;;10.90;97.20;;;;;;5095609;28;20815;-84
2024/03/25 11:19:03;;;;;;;7.93;2.80;;;10.90;97.20;;;;;;5099927;28;20477;-83
2024/03/25 11:21:33;;;;;;;3.57;2.60;;;11.00;97.20;;;;;;5089110;28;20432;-83
2024/03/25 11:24:09;;;;;;;7.73;3.43;;;11.00;97.20;;;;;;5087316;28;20882;-85
2024/03/25 11:26:40;;;;;;;6.70;2.53;;;11.00;97.20;;;;;;5090406;28;20446;-83
2024/03/25 11:29:06;;;;;;;4.47;2.93;;;11.00;97.10;;;;;;5088748;28;20448;-83
2024/03/25 11:31:33;;;;;;;6.00;3.20;;;11.10;97.20;;;;;;5099751;28;20432;-82
2024/03/25 11:34:08;;;;;;;9.10;4.07;;;11.10;97.10;;;;;;5089812;28;20459;-82
2024/03/25 11:36:34;;;;;;;5.20;3.30;;;11.10;97.00;;;;;;5069823;28;20463;-81
2024/03/25 11:39:09;;;;;;;4.83;2.83;;;11.10;97.00;;;;;;5071577;28;20510;-81
2024/03/25 11:41:45;;;;;;;5.90;2.90;;;11.20;97.00;;;;;;5068171;28;20428;-81
2024/03/25 11:44:14;;;;;;;7.40;3.57;;;11.20;96.90;;;;;;5094677;28;20436;-83
2024/03/25 11:46:41;;;;;;;3.70;2.80;;;11.20;96.80;;;;;;5089609;28;20420;-82
2024/03/25 11:49:08;;;;;;;7.73;3.40;;;11.30;96.70;;;;;;5102606;28;20432;-83
2024/03/25 11:51:40;;;;;;;6.23;3.17;;;11.30;96.60;;;;;;5080450;28;20440;-81
2024/03/25 11:54:17;;;;;;;7.50;3.20;;;11.30;96.60;;;;;;5070874;28;20448;-83
2024/03/25 11:57:10;;;;;;;6.13;3.03;;;11.30;96.60;;;;;;5071232;27;20475;-82
2024/03/25 12:02:58;;;;;;;7.23;3.50;;;11.40;96.70;;;;;;5086165;28;20968;-83
2024/03/25 12:05:24;;;;;;;6.50;2.87;;;11.40;96.70;;;;;;5094537;28;20501;-80
2024/03/25 12:07:50;;;;;;;5.90;3.10;;;11.40;96.70;;;;;;5109710;27;20415;-81
2024/03/25 12:13:05;;;;;;;6.20;3.90;;;11.50;96.50;;;;;;5108243;28;20472;-83
2024/03/25 12:15:38;;;;;;;7.13;3.90;;;11.50;96.30;;;;;;5049908;28;20437;-83
2024/03/25 12:18:05;;;;;;;5.70;3.23;;;11.50;96.20;;;;;;5072252;28;20465;-83
2024/03/25 12:20:38;;;;;;;4.40;3.20;;;11.60;96.20;;;;;;5118717;28;20504;-83
2024/03/25 12:23:07;;;;;;;5.93;3.33;;;11.60;96.00;;;;;;5102960;28;20524;-83
2024/03/25 12:25:33;;;;;;;5.17;3.73;;;11.70;95.90;;;;;;5070761;28;20439;-82
2024/03/25 12:27:59;;;;;;;5.80;3.20;;;11.70;96.00;;;;;;5089081;28;20436;-81
2024/03/25 12:30:30;;;;;;;7.53;3.67;;;11.70;95.90;;;;;;5078128;28;20446;-83
2024/03/25 12:33:02;;;;;;;5.37;3.53;;;11.70;95.80;;;;;;5097756;27;20471;-83
2024/03/25 12:35:35;;;;;;;6.53;3.83;;;11.80;95.80;;;;;;5086331;28;20422;-82
2024/03/25 12:38:01;;;;;;;6.10;3.27;;;11.70;95.80;;;;;;5093596;28;20427;-82
2024/03/25 12:40:34;;;;;;;8.90;3.93;;;11.80;95.90;;;;;;5094836;28;20890;-81
2024/03/25 12:43:00;;;;;;;3.53;3.00;;;11.80;95.90;;;;;;5063317;28;20436;-82
2024/03/25 12:45:26;;;;;;;4.20;3.03;;;11.80;95.80;;;;;;5105608;28;20431;-83
2024/03/25 12:47:52;;;;;;;6.10;3.70;;;11.90;95.90;;;;;;5066825;28;20777;-83
2024/03/25 12:50:23;;;;;;;4.80;3.50;;;11.90;95.90;;;;;;5069199;28;20420;-84
2024/03/25 12:52:49;;;;;;;6.30;3.50;;;11.90;95.90;;;;;;5105591;28;20990;-84
2024/03/25 12:55:41;;;;;;;5.13;3.17;;;11.90;95.90;;;;;;5069784;28;20539;-83
2024/03/25 12:58:07;;;;;;;4.67;3.20;;;11.90;95.90;;;;;;5073006;28;20548;-81
2024/03/25 13:00:35;;;;;;;5.80;3.53;;;12.00;95.90;;;;;;5088198;28;20509;-83
2024/03/25 13:03:02;;;;;;;10.30;3.43;;;11.90;95.80;;;;;;5083117;28;20441;-81
2024/03/25 13:05:28;;;;;;;6.83;3.30;;;12.00;95.80;;;;;;5083411;28;20434;-82
2024/03/25 13:07:54;;;;;;;6.90;3.83;;;12.00;95.80;;;;;;5107235;28;20448;-81
2024/03/25 13:10:20;;;;;;;4.17;2.70;;;12.00;95.80;;;;;;5082127;28;20424;-82
2024/03/25 13:12:47;;;;;;;5.73;3.47;;;12.00;95.70;;;;;;5090074;28;20468;-82
2024/03/25 13:15:13;;;;;;;5.17;2.73;;;12.00;95.70;;;;;;5108860;28;20496;-81